createdAt,value
2022-10-15T00:00:17.865Z,93.27
2022-10-15T00:02:44.356Z,92.98
2022-10-15T00:05:10.908Z,93.29
2022-10-15T00:07:37.488Z,92.94
2022-10-15T00:10:04.298Z,93.31
2022-10-15T00:12:30.857Z,92.93
2022-10-15T00:14:57.402Z,93.24
2022-10-15T00:17:24.345Z,93.35
2022-10-15T00:19:51.146Z,92.41
2022-10-15T00:22:17.871Z,92.40
2022-10-15T00:24:44.421Z,93.00
2022-10-15T00:27:10.931Z,92.15
2022-10-15T00:29:37.448Z,92.93
2022-10-15T00:32:04.027Z,92.61
2022-10-15T00:34:30.805Z,92.50
2022-10-15T00:36:57.326Z,92.61
2022-10-15T00:39:24.071Z,92.27
2022-10-15T00:41:50.626Z,92.33
2022-10-15T00:44:26.801Z,93.25
2022-10-15T00:47:17.921Z,92.52
2022-10-15T00:49:55.453Z,92.89
2022-10-15T00:52:37.289Z,92.96
2022-10-15T00:55:12.520Z,93.90
2022-10-15T00:57:40.355Z,93.19
2022-10-15T01:00:11.255Z,93.21
2022-10-15T01:02:38.071Z,92.21
2022-10-15T01:05:05.478Z,92.75
2022-10-15T01:07:31.985Z,91.84
2022-10-15T01:09:58.705Z,92.83
2022-10-15T01:12:25.445Z,91.96
2022-10-15T01:15:05.306Z,91.98
2022-10-15T01:17:48.133Z,91.06
2022-10-15T01:20:31.791Z,91.16
2022-10-15T01:23:07.434Z,91.46
2022-10-15T01:25:55.835Z,91.44
2022-10-15T01:28:53.020Z,90.86
2022-10-15T01:31:42.078Z,90.26
2022-10-15T01:34:25.172Z,90.85
2022-10-15T01:37:03.885Z,90.05
2022-10-15T01:39:59.478Z,89.31
2022-10-15T01:42:36.119Z,89.13
2022-10-15T01:45:07.650Z,89.18
2022-10-15T01:47:37.996Z,89.02
2022-10-15T01:50:06.784Z,88.99
2022-10-15T01:52:37.433Z,88.96
2022-10-15T01:55:07.093Z,89.10
2022-10-15T01:57:35.041Z,88.57
2022-10-15T02:00:04.632Z,88.94
2022-10-15T02:02:31.139Z,89.04
2022-10-15T02:04:57.787Z,89.05
2022-10-15T02:07:57.017Z,88.58
2022-10-15T02:10:52.896Z,88.53
2022-10-15T02:13:40.836Z,88.92
2022-10-15T02:16:41.666Z,88.30
2022-10-15T02:19:32.222Z,88.15
2022-10-15T02:22:09.055Z,88.84
2022-10-15T02:24:41.796Z,88.51
2022-10-15T02:27:11.017Z,88.75
2022-10-15T02:29:40.090Z,88.27
2022-10-15T02:32:08.420Z,88.04
2022-10-15T02:34:36.468Z,87.91
2022-10-15T02:37:05.016Z,87.32
2022-10-15T02:39:32.026Z,86.64
2022-10-15T02:41:58.789Z,86.67
2022-10-15T02:44:25.415Z,87.02
2022-10-15T02:46:51.973Z,86.92
2022-10-15T02:49:18.502Z,86.88
2022-10-15T02:51:45.028Z,87.36
2022-10-15T02:54:11.902Z,87.09
2022-10-15T02:56:39.523Z,87.47
2022-10-15T02:59:06.832Z,87.55
2022-10-15T03:01:34.281Z,87.68
2022-10-15T03:04:01.771Z,87.83
2022-10-15T03:06:28.398Z,87.22
2022-10-15T03:08:54.919Z,86.76
2022-10-15T03:11:21.462Z,86.65
2022-10-15T03:13:47.982Z,87.18
2022-10-15T03:16:14.595Z,86.84
2022-10-15T03:18:41.329Z,86.71
2022-10-15T03:21:08.164Z,86.91
2022-10-15T03:23:34.865Z,86.89
2022-10-15T03:26:01.908Z,87.20
2022-10-15T03:28:28.479Z,87.24
2022-10-15T03:30:55.262Z,87.61
2022-10-15T03:33:24.381Z,87.54
2022-10-15T03:35:52.826Z,87.59
2022-10-15T03:38:19.788Z,87.63
2022-10-15T03:40:46.701Z,87.40
2022-10-15T03:43:13.332Z,86.72
2022-10-15T03:45:40.036Z,86.68
2022-10-15T03:48:06.822Z,87.10
2022-10-15T03:50:33.395Z,86.66
2022-10-15T03:53:02.314Z,86.67
2022-10-15T03:55:28.851Z,87.04
2022-10-15T03:57:55.357Z,86.96
2022-10-15T04:00:21.963Z,86.86
2022-10-15T04:02:48.500Z,87.38
2022-10-15T04:05:15.168Z,87.49
2022-10-15T04:07:42.822Z,87.70
2022-10-15T04:10:09.705Z,87.23
2022-10-15T04:12:36.265Z,87.62
2022-10-15T04:15:03.175Z,87.32
2022-10-15T04:17:29.691Z,87.84
2022-10-15T04:19:56.202Z,88.02
2022-10-15T04:22:23.072Z,88.40
2022-10-15T04:24:50.011Z,88.40
2022-10-15T04:27:16.581Z,87.98
2022-10-15T04:29:43.135Z,88.52
2022-10-15T04:32:16.346Z,88.79
2022-10-15T04:34:43.177Z,88.61
2022-10-15T04:37:09.665Z,88.68
2022-10-15T04:39:36.178Z,88.52
2022-10-15T04:42:02.766Z,89.20
2022-10-15T04:44:29.366Z,88.84
2022-10-15T04:46:55.863Z,88.79
2022-10-15T04:49:22.455Z,88.89
2022-10-15T04:51:49.133Z,88.39
2022-10-15T04:54:15.747Z,88.35
2022-10-15T04:56:42.359Z,88.23
2022-10-15T04:59:09.739Z,86.96
2022-10-15T05:01:36.367Z,86.31
2022-10-15T05:04:03.044Z,85.02
2022-10-15T05:06:29.559Z,85.13
2022-10-15T05:08:56.061Z,84.90
2022-10-15T05:11:26.273Z,84.14
2022-10-15T05:13:56.191Z,83.69
2022-10-15T05:16:25.594Z,83.86
2022-10-15T05:18:56.184Z,83.54
2022-10-15T05:21:22.744Z,83.69
2022-10-15T05:23:50.323Z,82.36
2022-10-15T05:26:25.077Z,81.76
2022-10-15T05:28:52.481Z,82.39
2022-10-15T05:31:21.590Z,82.19
2022-10-15T05:33:49.831Z,82.25
2022-10-15T05:36:20.561Z,80.84
2022-10-15T05:38:53.105Z,81.76
2022-10-15T05:41:20.979Z,81.53
2022-10-15T05:43:49.071Z,81.91
2022-10-15T05:46:15.726Z,81.23
2022-10-15T05:48:42.639Z,80.96
2022-10-15T05:51:12.881Z,80.66
2022-10-15T05:53:40.529Z,80.14
2022-10-15T05:56:08.478Z,80.47
2022-10-15T05:58:37.474Z,79.59
2022-10-15T06:01:08.161Z,79.97
2022-10-15T06:03:35.746Z,79.56
2022-10-15T06:06:02.386Z,79.40
2022-10-15T06:08:30.523Z,79.36
2022-10-15T06:11:06.761Z,79.78
2022-10-15T06:13:37.917Z,79.48
2022-10-15T06:16:04.916Z,79.29
2022-10-15T06:18:31.902Z,79.49
2022-10-15T06:20:58.427Z,80.28
2022-10-15T06:23:24.962Z,81.06
2022-10-15T06:25:51.591Z,81.41
2022-10-15T06:28:18.370Z,82.04
2022-10-15T06:30:45.097Z,82.44
2022-10-15T06:35:44.072Z,83.31
2022-10-15T06:38:10.931Z,83.82
2022-10-15T06:40:38.879Z,84.08
2022-10-15T06:43:08.143Z,84.85
2022-10-15T06:45:37.184Z,84.38
2022-10-15T06:48:05.115Z,85.72
2022-10-15T06:50:40.840Z,85.67
2022-10-15T06:53:08.312Z,86.14
2022-10-15T06:55:35.471Z,86.28
2022-10-15T06:58:02.060Z,86.38
2022-10-15T07:00:28.836Z,86.57
2022-10-15T07:02:55.458Z,86.70
2022-10-15T07:05:22.185Z,87.33
2022-10-15T07:07:52.645Z,87.44
2022-10-15T07:12:50.782Z,88.06
2022-10-15T07:15:17.884Z,88.72
2022-10-15T07:17:52.298Z,88.28
2022-10-15T07:20:22.025Z,88.57
2022-10-15T07:22:51.052Z,88.74
2022-10-15T07:25:17.857Z,88.94
2022-10-15T07:27:44.691Z,89.30
2022-10-15T07:30:11.692Z,89.03
2022-10-15T07:32:38.332Z,89.74
2022-10-15T07:35:05.317Z,89.23
2022-10-15T07:37:32.897Z,89.25
2022-10-15T07:39:59.495Z,89.42
2022-10-15T07:42:26.389Z,89.86
2022-10-15T07:44:53.059Z,90.25
2022-10-15T07:47:19.923Z,89.80
2022-10-15T07:49:46.484Z,89.41
2022-10-15T07:52:13.151Z,89.87
2022-10-15T07:54:39.776Z,89.28
2022-10-15T07:57:09.251Z,89.78
2022-10-15T07:59:36.007Z,88.68
2022-10-15T08:02:02.781Z,89.19
2022-10-15T08:04:29.459Z,89.10
2022-10-15T08:06:56.058Z,88.54
2022-10-15T08:09:22.798Z,87.79
2022-10-15T08:11:49.351Z,88.16
2022-10-15T08:14:15.877Z,88.14
2022-10-15T08:16:42.430Z,87.45
2022-10-15T08:19:08.972Z,87.39
2022-10-15T08:21:35.493Z,86.98
2022-10-15T08:24:02.101Z,86.72
2022-10-15T08:26:28.714Z,86.33
2022-10-15T08:28:55.335Z,85.36
2022-10-15T08:31:21.943Z,86.46
2022-10-15T08:33:48.559Z,85.70
2022-10-15T08:36:15.147Z,86.07
2022-10-15T08:38:41.742Z,86.24
2022-10-15T08:41:26.684Z,85.81
2022-10-15T08:43:53.519Z,86.57
2022-10-15T08:46:25.416Z,85.69
2022-10-15T08:48:56.237Z,85.67
2022-10-15T08:51:28.501Z,85.33
2022-10-15T08:54:02.371Z,85.63
2022-10-15T08:56:39.293Z,86.49
2022-10-15T08:59:36.889Z,86.30
2022-10-15T09:02:17.519Z,86.42
2022-10-15T09:04:58.964Z,86.06
2022-10-15T09:07:54.354Z,86.16
2022-10-15T09:10:30.375Z,85.95
2022-10-15T09:13:16.452Z,86.09
2022-10-15T09:15:58.134Z,86.37
2022-10-15T09:18:28.793Z,85.66
2022-10-15T09:20:57.498Z,84.97
2022-10-15T09:23:27.468Z,85.61
2022-10-15T09:26:06.851Z,85.66
2022-10-15T09:28:43.570Z,86.46
2022-10-15T09:31:13.554Z,86.09
2022-10-15T09:33:45.317Z,85.47
2022-10-15T09:36:33.510Z,85.14
2022-10-15T09:39:21.665Z,85.51
2022-10-15T09:42:09.835Z,84.85
2022-10-15T09:44:41.956Z,84.83
2022-10-15T09:47:15.390Z,84.08
2022-10-15T09:49:42.877Z,84.35
2022-10-15T09:52:21.972Z,84.49
2022-10-15T09:55:19.034Z,84.43
2022-10-15T09:57:51.646Z,84.09
2022-10-15T10:00:18.326Z,84.38
2022-10-15T10:02:44.918Z,84.38
2022-10-15T10:05:28.453Z,84.88
2022-10-15T10:08:24.275Z,85.34
2022-10-15T10:10:55.939Z,85.48
2022-10-15T10:13:32.869Z,85.47
2022-10-15T10:16:06.371Z,84.89
2022-10-15T10:18:33.201Z,84.93
2022-10-15T10:21:02.355Z,85.00
2022-10-15T10:23:31.986Z,85.79
2022-10-15T10:25:59.849Z,84.55
2022-10-15T10:28:32.845Z,85.54
2022-10-15T10:31:03.941Z,85.73
2022-10-15T10:33:52.288Z,85.68
2022-10-15T10:36:28.506Z,86.65
2022-10-15T10:39:28.962Z,86.74
2022-10-15T10:42:15.996Z,87.45
2022-10-15T10:44:46.932Z,86.80
2022-10-15T10:47:15.362Z,86.84
2022-10-15T10:49:46.740Z,87.06
2022-10-15T10:52:37.780Z,86.11
2022-10-15T10:55:18.043Z,86.38
2022-10-15T10:57:59.509Z,86.15
2022-10-15T11:00:32.503Z,86.29
2022-10-15T11:02:59.475Z,86.58
2022-10-15T11:05:29.263Z,87.62
2022-10-15T11:08:11.067Z,87.00
2022-10-15T11:11:04.676Z,87.35
2022-10-15T11:13:43.942Z,87.01
2022-10-15T11:16:21.269Z,85.66
2022-10-15T11:19:13.728Z,85.97
2022-10-15T11:21:58.689Z,86.34
2022-10-15T11:24:48.471Z,86.48
2022-10-15T11:27:52.895Z,86.63
2022-10-15T11:30:55.218Z,86.49
2022-10-15T11:33:24.447Z,86.23
2022-10-15T11:36:23.782Z,86.45
2022-10-15T11:39:37.446Z,85.84
2022-10-15T11:42:32.487Z,86.96
2022-10-15T11:45:28.835Z,86.55
2022-10-15T11:48:22.503Z,86.70
2022-10-15T11:51:00.694Z,85.97
2022-10-15T11:53:53.839Z,85.22
2022-10-15T11:56:28.604Z,84.94
2022-10-15T11:59:02.923Z,84.59
2022-10-15T12:01:50.016Z,84.88
2022-10-15T12:04:32.578Z,85.14
2022-10-15T12:07:02.484Z,84.46
2022-10-15T12:09:35.168Z,83.83
2022-10-15T12:12:20.455Z,84.06
2022-10-15T12:15:14.040Z,83.78
2022-10-15T12:17:54.387Z,82.97
2022-10-15T12:20:23.328Z,83.79
2022-10-15T12:22:52.830Z,83.52
2022-10-15T12:25:34.834Z,83.23
2022-10-15T12:28:03.977Z,81.70
2022-10-15T12:30:37.182Z,82.11
2022-10-15T12:33:23.085Z,82.31
2022-10-15T12:35:59.010Z,82.49
2022-10-15T12:38:33.296Z,82.98
2022-10-15T12:41:10.531Z,82.67
2022-10-15T12:43:41.957Z,83.04
2022-10-15T12:46:11.107Z,82.39
2022-10-15T12:48:46.232Z,82.56
2022-10-15T12:51:31.555Z,82.04
2022-10-15T12:54:00.351Z,82.10
2022-10-15T12:56:39.463Z,82.05
2022-10-15T12:59:50.137Z,81.85
2022-10-15T13:02:49.655Z,82.18
2022-10-15T13:05:35.908Z,81.76
2022-10-15T13:08:14.854Z,82.95
2022-10-15T13:10:57.098Z,82.70
2022-10-15T13:13:25.203Z,83.13
2022-10-15T13:15:57.091Z,82.44
2022-10-15T13:18:24.690Z,82.45
2022-10-15T13:20:54.658Z,82.47
2022-10-15T13:23:31.403Z,82.75
2022-10-15T13:26:20.446Z,83.40
2022-10-15T13:28:49.270Z,83.00
2022-10-15T13:31:27.520Z,82.86
2022-10-15T13:34:16.328Z,82.93
2022-10-15T13:36:45.082Z,83.09
2022-10-15T13:42:24.198Z,83.37
2022-10-15T13:45:01.632Z,83.22
2022-10-15T13:47:32.723Z,83.41
2022-10-15T13:50:24.400Z,83.38
2022-10-15T13:53:05.788Z,83.85
2022-10-15T13:55:36.417Z,83.56
2022-10-15T13:58:24.979Z,82.84
2022-10-15T14:01:00.957Z,82.47
2022-10-15T14:03:30.693Z,82.66
2022-10-15T14:06:07.910Z,83.08
2022-10-15T14:08:36.357Z,83.29
2022-10-15T14:11:03.450Z,83.65
2022-10-15T14:13:29.997Z,84.37
2022-10-15T14:16:42.441Z,84.62
2022-10-15T14:19:12.009Z,84.82
2022-10-15T14:21:44.676Z,85.03
2022-10-15T14:24:16.496Z,84.59
2022-10-15T14:26:44.359Z,84.97
2022-10-15T14:29:25.009Z,84.78
2022-10-15T14:31:51.614Z,84.43
2022-10-15T14:34:38.868Z,84.77
2022-10-15T14:37:36.510Z,85.64
2022-10-15T14:40:23.270Z,86.64
2022-10-15T14:43:05.069Z,86.29
2022-10-15T14:45:53.325Z,86.60
2022-10-15T14:48:24.715Z,86.62
2022-10-15T14:50:51.324Z,86.84
2022-10-15T14:53:21.825Z,87.09
2022-10-15T14:56:03.094Z,86.10
2022-10-15T14:58:30.749Z,86.24
2022-10-15T15:00:59.584Z,85.66
2022-10-15T15:03:31.909Z,86.09
2022-10-15T15:05:58.539Z,85.48
2022-10-15T15:08:26.068Z,85.65
2022-10-15T15:10:56.306Z,85.89
2022-10-15T15:13:27.969Z,84.98
2022-10-15T15:15:54.953Z,83.24
2022-10-15T15:18:21.559Z,80.36
2022-10-15T15:20:50.646Z,79.38
2022-10-15T15:23:23.865Z,80.12
2022-10-15T15:25:52.286Z,80.76
2022-10-15T15:28:21.551Z,80.94
2022-10-15T15:31:05.539Z,81.56
2022-10-15T15:33:33.314Z,82.21
2022-10-15T15:36:09.793Z,82.12
2022-10-15T15:41:12.471Z,82.54
2022-10-15T15:43:39.359Z,82.22
2022-10-15T15:46:06.179Z,82.48
2022-10-15T15:48:32.827Z,83.14
2022-10-15T15:51:02.658Z,83.18
2022-10-15T15:53:29.593Z,83.13
2022-10-15T15:55:56.147Z,84.00
2022-10-15T15:58:22.662Z,83.91
2022-10-15T16:00:49.231Z,83.45
2022-10-15T16:03:15.779Z,84.07
2022-10-15T16:05:42.689Z,83.82
2022-10-15T16:08:10.443Z,83.67
2022-10-15T16:10:37.043Z,84.30
2022-10-15T16:13:03.785Z,84.62
2022-10-15T16:15:30.339Z,84.11
2022-10-15T16:17:56.878Z,84.69
2022-10-15T16:20:23.410Z,84.93
2022-10-15T16:22:53.719Z,85.03
2022-10-15T16:25:22.530Z,84.80
2022-10-15T16:27:51.786Z,85.01
2022-10-15T16:30:19.323Z,84.44
2022-10-15T16:32:46.167Z,84.46
2022-10-15T16:35:12.745Z,85.00
2022-10-15T16:37:39.302Z,85.03
2022-10-15T16:40:06.562Z,84.70
2022-10-15T16:42:33.073Z,84.70
2022-10-15T16:44:59.578Z,84.73
2022-10-15T16:47:26.294Z,84.50
2022-10-15T16:49:55.506Z,85.07
2022-10-15T16:52:22.220Z,85.25
2022-10-15T16:54:48.941Z,85.53
2022-10-15T16:57:15.445Z,85.59
2022-10-15T16:59:41.986Z,85.57
2022-10-15T17:02:09.908Z,85.65
2022-10-15T17:04:36.493Z,85.05
2022-10-15T17:07:03.027Z,85.55
2022-10-15T17:09:29.670Z,85.46
2022-10-15T17:11:56.167Z,85.47
2022-10-15T17:14:22.668Z,86.09
2022-10-15T17:16:51.587Z,86.04
2022-10-15T17:19:23.542Z,86.13
2022-10-15T17:21:50.830Z,86.26
2022-10-15T17:24:19.330Z,86.32
2022-10-15T17:26:46.964Z,86.59
2022-10-15T17:29:20.699Z,86.13
2022-10-15T17:31:48.379Z,86.05
2022-10-15T17:34:14.969Z,85.51
2022-10-15T17:36:47.739Z,85.71
2022-10-15T17:39:17.883Z,85.46
2022-10-15T17:41:44.479Z,85.91
2022-10-15T17:44:11.872Z,85.90
2022-10-15T17:46:39.067Z,85.75
2022-10-15T17:49:06.277Z,86.11
2022-10-15T17:51:33.251Z,85.78
2022-10-15T17:54:00.403Z,85.85
2022-10-15T17:56:32.367Z,85.69
2022-10-15T17:59:00.688Z,86.31
2022-10-15T18:01:33.717Z,85.83
2022-10-15T18:04:12.928Z,85.54
2022-10-15T18:06:44.298Z,85.96
2022-10-15T18:09:10.841Z,85.54
2022-10-15T18:11:37.595Z,85.95
2022-10-15T18:14:04.111Z,86.26
2022-10-15T18:16:30.812Z,86.14
2022-10-15T18:18:57.389Z,86.83
2022-10-15T18:21:27.460Z,86.78
2022-10-15T18:23:56.520Z,86.56
2022-10-15T18:26:23.947Z,86.84
2022-10-15T18:28:52.204Z,86.99
2022-10-15T18:31:19.746Z,87.20
2022-10-15T18:33:49.191Z,87.51
2022-10-15T18:36:18.355Z,87.61
2022-10-15T18:38:45.183Z,87.26
2022-10-15T18:41:15.673Z,87.31
2022-10-15T18:43:42.375Z,88.28
2022-10-15T18:46:09.424Z,88.48
2022-10-15T18:48:38.851Z,88.09
2022-10-15T18:51:08.782Z,88.45
2022-10-15T18:53:39.527Z,88.07
2022-10-15T18:56:07.076Z,87.96
2022-10-15T18:58:33.871Z,87.39
2022-10-15T19:01:10.566Z,88.13
2022-10-15T19:03:37.266Z,88.67
2022-10-15T19:06:03.888Z,88.95
2022-10-15T19:08:31.137Z,88.41
2022-10-15T19:11:08.602Z,88.77
2022-10-15T19:13:36.289Z,88.69
2022-10-15T19:16:04.504Z,89.35
2022-10-15T19:18:31.813Z,89.40
2022-10-15T19:20:58.405Z,88.82
2022-10-15T19:23:25.063Z,88.75
2022-10-15T19:25:52.075Z,88.56
2022-10-15T19:28:18.700Z,88.98
2022-10-15T19:31:03.254Z,89.43
2022-10-15T19:33:31.522Z,89.78
2022-10-15T19:35:58.484Z,89.43
2022-10-15T19:38:26.342Z,89.66
2022-10-15T19:40:53.682Z,90.30
2022-10-15T19:43:22.051Z,89.81
2022-10-15T19:45:49.075Z,89.44
2022-10-15T19:48:18.572Z,88.91
2022-10-15T19:50:46.731Z,89.67
2022-10-15T19:53:16.449Z,89.97
2022-10-15T19:55:44.147Z,89.99
2022-10-15T19:58:10.693Z,90.27
2022-10-15T20:00:37.253Z,90.51
2022-10-15T20:03:03.865Z,90.40
2022-10-15T20:05:30.429Z,90.23
2022-10-15T20:07:56.948Z,90.57
2022-10-15T20:10:26.022Z,90.20
2022-10-15T20:12:53.342Z,90.75
2022-10-15T20:15:20.056Z,90.49
2022-10-15T20:17:47.231Z,89.92
2022-10-15T20:20:13.723Z,89.79
2022-10-15T20:22:40.261Z,89.48
2022-10-15T20:25:07.268Z,89.45
2022-10-15T20:27:33.847Z,89.70
2022-10-15T20:30:00.360Z,89.37
2022-10-15T20:32:35.286Z,89.35
2022-10-15T20:35:04.217Z,90.21
2022-10-15T20:37:31.101Z,89.68
2022-10-15T20:42:29.251Z,90.31
2022-10-15T20:44:55.859Z,90.03
2022-10-15T20:47:24.053Z,90.23
2022-10-15T20:49:54.154Z,90.60
2022-10-15T20:52:22.583Z,89.83
2022-10-15T20:54:50.307Z,90.04
2022-10-15T20:57:16.842Z,90.43
2022-10-15T20:59:43.374Z,90.45
2022-10-15T21:02:09.957Z,90.96
2022-10-15T21:04:36.460Z,90.43
2022-10-15T21:07:02.981Z,91.00
2022-10-15T21:09:29.479Z,90.76
2022-10-15T21:11:56.022Z,90.83
2022-10-15T21:14:22.577Z,90.82
2022-10-15T21:16:49.152Z,91.56
2022-10-15T21:19:15.661Z,91.26
2022-10-15T21:21:42.159Z,91.46
2022-10-15T21:24:08.704Z,91.49
2022-10-15T21:26:35.185Z,91.17
2022-10-15T21:29:01.836Z,91.46
2022-10-15T21:31:28.535Z,91.76
2022-10-15T21:33:55.719Z,91.97
2022-10-15T21:36:27.199Z,91.88
2022-10-15T21:38:56.395Z,91.53
2022-10-15T21:41:24.476Z,91.82
2022-10-15T21:43:51.865Z,91.75
2022-10-15T21:46:19.026Z,91.79
2022-10-15T21:48:45.905Z,91.80
2022-10-15T21:51:17.861Z,91.57
2022-10-15T21:53:44.615Z,92.08
2022-10-15T21:56:11.275Z,91.71
2022-10-15T21:58:39.282Z,91.44
2022-10-15T22:01:23.449Z,91.44
2022-10-15T22:03:51.552Z,91.49
2022-10-15T22:06:19.339Z,91.60
2022-10-15T22:08:46.633Z,91.19
2022-10-15T22:11:15.779Z,91.63
2022-10-15T22:13:44.191Z,91.36
2022-10-15T22:16:11.640Z,91.59
2022-10-15T22:18:38.668Z,91.88
2022-10-15T22:21:15.943Z,91.23
2022-10-15T22:23:50.004Z,91.60
2022-10-15T22:26:18.603Z,91.17
2022-10-15T22:28:46.043Z,91.62
2022-10-15T22:31:15.123Z,91.32
2022-10-15T22:33:42.597Z,90.90
2022-10-15T22:36:18.023Z,90.87
2022-10-15T22:38:46.532Z,90.76
2022-10-15T22:41:13.918Z,90.49
2022-10-15T22:43:40.756Z,90.58
2022-10-15T22:46:07.906Z,90.08
2022-10-15T22:48:35.847Z,89.55
2022-10-15T22:51:03.855Z,89.80
2022-10-15T22:53:31.440Z,89.53
2022-10-15T22:56:02.307Z,88.03
2022-10-15T22:58:31.350Z,87.95
2022-10-15T23:01:11.159Z,86.76
2022-10-15T23:03:39.187Z,86.18
2022-10-15T23:06:06.438Z,86.58
2022-10-15T23:08:34.394Z,86.85
2022-10-15T23:11:12.761Z,86.64
2022-10-15T23:13:40.540Z,86.82
2022-10-15T23:16:07.136Z,87.07
2022-10-15T23:18:33.704Z,86.48
2022-10-15T23:21:11.375Z,86.68
2022-10-15T23:23:37.857Z,87.22
2022-10-15T23:26:04.362Z,86.90
2022-10-15T23:28:30.966Z,87.28
2022-10-15T23:30:57.535Z,87.31
2022-10-15T23:33:24.552Z,87.44
2022-10-15T23:36:04.513Z,87.25
2022-10-15T23:38:31.259Z,87.65
2022-10-15T23:41:07.318Z,88.18
2022-10-15T23:43:34.071Z,87.45
2022-10-15T23:46:00.853Z,87.82
2022-10-15T23:48:28.289Z,87.98
2022-10-15T23:50:59.258Z,87.79
2022-10-15T23:53:29.142Z,88.12
2022-10-15T23:55:55.703Z,88.38
2022-10-15T23:58:22.218Z,88.29
